Time;durP1;ratioP1;P1;durP2;ratioP2;P2;SDS_P1;SDS_P2;PMS_P1;PMS_P2;Temp;Humidity;BMP_temperature;BMP_pressure;BME280_temperature;BME280_humidity;BME280_pressure;Samples;Min_cycle;Max_cycle;Signal;HPM_P1;HPM_P2
2022/05/07 00:01:19;;;;;;;22.92;11.20;;;9.30;99.90;;;;;;5061732;28;20581;-68
2022/05/07 00:03:46;;;;;;;20.30;12.00;;;9.20;99.90;;;;;;5038736;28;20120;-69
2022/05/07 00:06:11;;;;;;;23.77;13.15;;;9.20;99.90;;;;;;5044515;28;20044;-68
2022/05/07 00:08:37;;;;;;;;;;;9.20;99.90;;;;;;5060252;28;20116;-68
2022/05/07 00:11:02;;;;;;;22.20;13.10;;;9.20;99.90;;;;;;5062113;28;19927;-68
2022/05/07 00:13:28;;;;;;;;;;;9.10;99.90;;;;;;5064120;28;20102;-67
2022/05/07 00:18:38;;;;;;;21.27;12.05;;;9.20;99.90;;;;;;5061748;28;20532;-68
2022/05/07 00:21:03;;;;;;;;;;;9.20;99.90;;;;;;5066265;28;20131;-68
2022/05/07 00:23:30;;;;;;;19.02;11.43;;;9.10;99.90;;;;;;5060796;28;20014;-68
2022/05/07 00:25:56;;;;;;;22.50;11.93;;;9.00;99.90;;;;;;5065166;28;20048;-68
2022/05/07 00:28:21;;;;;;;;;;;9.00;99.90;;;;;;5061347;28;20074;-68
2022/05/07 00:30:47;;;;;;;21.70;12.00;;;9.00;99.90;;;;;;5064076;28;19920;-68
2022/05/07 00:33:12;;;;;;;;;;;9.00;99.90;;;;;;5060596;28;20508;-68
2022/05/07 00:35:38;;;;;;;25.83;11.80;;;8.90;99.90;;;;;;5065272;28;19920;-68
2022/05/07 00:38:03;;;;;;;;;;;8.90;99.90;;;;;;5054498;28;20602;-68
2022/05/07 00:40:29;;;;;;;19.33;11.65;;;8.80;99.90;;;;;;5047386;28;19924;-68
2022/05/07 00:42:54;;;;;;;;;;;8.80;99.90;;;;;;5049549;28;20048;-68
2022/05/07 00:45:20;;;;;;;22.65;12.27;;;8.80;99.90;;;;;;5045173;28;20233;-69
2022/05/07 00:47:45;;;;;;;;;;;8.90;99.90;;;;;;5052952;28;20492;-68
2022/05/07 00:52:55;;;;;;;21.30;13.02;;;8.80;99.90;;;;;;5049815;28;20036;-68
2022/05/07 00:55:23;;;;;;;;;;;8.80;99.90;;;;;;5045424;28;20071;-69
2022/05/07 00:57:49;;;;;;;22.95;12.57;;;8.80;99.90;;;;;;5049601;28;20456;-68
2022/05/07 01:00:14;;;;;;;;;;;8.80;99.90;;;;;;5044318;28;20041;-68
2022/05/07 01:02:41;;;;;;;19.08;11.38;;;8.80;99.90;;;;;;5048623;28;19931;-68
2022/05/07 01:05:09;;;;;;;24.95;12.77;;;8.80;99.90;;;;;;5044712;28;20072;-68
2022/05/07 01:07:35;;;;;;;21.73;12.15;;;8.80;99.90;;;;;;5049958;28;20139;-68
2022/05/07 01:10:01;;;;;;;;;;;8.80;99.90;;;;;;5051413;28;20108;-68
2022/05/07 01:12:27;;;;;;;22.98;11.90;;;8.80;99.90;;;;;;5044455;28;19917;-68
2022/05/07 01:14:55;;;;;;;;;;;8.80;99.90;;;;;;5025563;28;20083;-68
2022/05/07 01:17:20;;;;;;;22.98;12.02;;;8.80;99.90;;;;;;5032081;28;19929;-68
2022/05/07 01:19:46;;;;;;;;;;;8.80;99.90;;;;;;5046455;28;20043;-68
2022/05/07 01:22:15;;;;;;;19.38;11.88;;;8.80;99.90;;;;;;5044675;28;19917;-67
2022/05/07 01:24:43;;;;;;;24.92;13.35;;;8.80;99.90;;;;;;5047285;28;20069;-68
2022/05/07 01:27:09;;;;;;;22.75;12.38;;;8.70;99.90;;;;;;5044058;28;20037;-67
2022/05/07 01:29:38;;;;;;;;;;;8.70;99.90;;;;;;5048368;28;20674;-67
2022/05/07 01:32:14;;;;;;;20.50;11.70;;;8.70;99.90;;;;;;5034407;28;20607;-68
2022/05/07 01:34:46;;;;;;;25.40;13.00;;;8.60;99.90;;;;;;5044109;28;20068;-68
2022/05/07 01:37:12;;;;;;;21.15;12.30;;;8.50;99.90;;;;;;5044149;28;20051;-68
2022/05/07 01:39:39;;;;;;;;;;;8.50;99.90;;;;;;5048428;28;20120;-68
2022/05/07 01:42:14;;;;;;;19.13;12.07;;;8.40;99.90;;;;;;5042731;28;19917;-68
2022/05/07 01:44:45;;;;;;;29.23;12.98;;;8.40;99.90;;;;;;5050387;28;20049;-67
2022/05/07 01:50:02;;;;;;;23.90;12.15;;;8.30;99.90;;;;;;5047268;28;20044;-67
2022/05/07 01:52:28;;;;;;;23.10;13.00;;;8.30;99.90;;;;;;5043119;28;20040;-66
2022/05/07 01:54:54;;;;;;;;;;;8.30;99.90;;;;;;5043711;28;20412;-66
2022/05/07 01:57:19;;;;;;;22.35;12.75;;;8.30;99.90;;;;;;5043441;28;19921;-66
2022/05/07 01:59:45;;;;;;;;;;;8.20;99.90;;;;;;5048391;28;20063;-66
2022/05/07 02:02:10;;;;;;;25.83;13.25;;;8.20;99.90;;;;;;5041885;28;20023;-66
2022/05/07 02:04:36;;;;;;;;;;;8.20;99.90;;;;;;5047467;28;20496;-66
2022/05/07 02:07:01;;;;;;;25.20;12.70;;;8.10;99.90;;;;;;5043714;28;19921;-66
2022/05/07 02:09:27;;;;;;;;;;;8.10;99.90;;;;;;5043550;28;20143;-66
2022/05/07 02:11:53;;;;;;;24.40;13.05;;;8.00;99.90;;;;;;5043845;28;19917;-66
2022/05/07 02:14:18;;;;;;;;;;;8.00;99.90;;;;;;5047898;28;20039;-66
2022/05/07 02:16:44;;;;;;;25.55;12.85;;;8.10;99.90;;;;;;5042890;28;19924;-65
2022/05/07 02:19:09;;;;;;;;;;;8.10;99.90;;;;;;5046570;28;20742;-66
2022/05/07 02:21:35;;;;;;;25.15;14.52;;;8.10;99.90;;;;;;5042645;28;19970;-66
2022/05/07 02:24:00;;;;;;;28.40;15.75;;;8.20;99.90;;;;;;5047211;28;20041;-66
2022/05/07 02:26:26;;;;;;;30.65;15.80;;;8.20;99.90;;;;;;5042360;28;20044;-66
2022/05/07 02:28:52;;;;;;;25.98;15.10;;;8.20;99.90;;;;;;5043796;28;20060;-66
2022/05/07 02:31:17;;;;;;;;;;;8.20;99.90;;;;;;5062200;28;20040;-68
2022/05/07 02:33:43;;;;;;;24.42;14.13;;;8.10;99.90;;;;;;5059788;28;19924;-64
2022/05/07 02:36:09;;;;;;;;;;;8.10;99.90;;;;;;5063049;28;20097;-66
2022/05/07 02:38:36;;;;;;;27.00;12.40;;;8.00;99.90;;;;;;5048098;28;19966;-66
2022/05/07 02:43:46;;;;;;;23.77;14.38;;;7.80;99.90;;;;;;5045542;28;20037;-66
2022/05/07 02:46:11;;;;;;;;;;;7.90;99.90;;;;;;5044873;28;20052;-66
2022/05/07 02:48:37;;;;;;;25.05;13.95;;;7.80;99.90;;;;;;5043447;28;20023;-66
2022/05/07 02:51:02;;;;;;;;;;;7.80;99.90;;;;;;5046865;28;20094;-66
2022/05/07 02:53:28;;;;;;;26.90;12.98;;;7.80;99.90;;;;;;5042187;28;19925;-66
2022/05/07 02:55:53;;;;;;;;;;;7.80;99.90;;;;;;5060323;28;20610;-66
2022/05/07 02:58:19;;;;;;;25.23;14.18;;;7.80;99.90;;;;;;5062668;28;19916;-66
2022/05/07 03:00:46;;;;;;;;;;;7.80;99.90;;;;;;5057473;28;20035;-66
2022/05/07 03:03:11;;;;;;;24.60;13.02;;;7.80;99.90;;;;;;5062339;28;20011;-66
2022/05/07 03:05:37;;;;;;;;;;;7.70;99.90;;;;;;5057927;28;20136;-66
2022/05/07 03:08:03;;;;;;;25.30;14.27;;;7.70;99.90;;;;;;5050382;28;19917;-66
2022/05/07 03:10:29;;;;;;;24.33;14.23;;;7.70;99.90;;;;;;5050584;28;20079;-69
2022/05/07 03:12:54;;;;;;;;;;;7.70;99.90;;;;;;5041898;28;20103;-68
2022/05/07 03:15:20;;;;;;;28.95;13.88;;;7.70;99.90;;;;;;5051815;28;19959;-69
2022/05/07 03:17:45;;;;;;;;;;;7.60;99.90;;;;;;5043017;28;20033;-69
2022/05/07 03:20:16;;;;;;;26.02;14.60;;;7.60;99.90;;;;;;5047206;28;20011;-69
2022/05/07 03:22:41;;;;;;;29.85;14.95;;;7.70;99.90;;;;;;5062092;28;20070;-69
2022/05/07 03:25:07;;;;;;;;;;;7.70;99.90;;;;;;5043158;28;20735;-69
2022/05/07 03:27:33;;;;;;;29.65;15.10;;;7.70;99.90;;;;;;5042776;28;19925;-69
2022/05/07 03:29:59;;;;;;;;;;;7.60;99.90;;;;;;5045458;28;20657;-69
2022/05/07 03:32:24;;;;;;;26.13;12.93;;;7.70;99.90;;;;;;5061198;28;19967;-69
2022/05/07 03:34:50;;;;;;;;;;;7.60;99.90;;;;;;5058472;28;20102;-70
2022/05/07 03:37:15;;;;;;;26.55;13.90;;;7.60;99.90;;;;;;5056965;28;19920;-68
2022/05/07 03:39:41;;;;;;;;;;;7.70;99.90;;;;;;5045842;28;20049;-69
2022/05/07 03:42:07;;;;;;;22.85;13.38;;;7.70;99.90;;;;;;5045549;28;19917;-69
2022/05/07 03:44:33;;;;;;;;;;;7.70;99.90;;;;;;5042997;28;20041;-69
2022/05/07 03:46:58;;;;;;;27.27;13.90;;;7.70;99.90;;;;;;5059100;28;20061;-68
2022/05/07 03:49:24;;;;;;;;;;;7.60;99.90;;;;;;5062519;28;20041;-68
2022/05/07 03:54:34;;;;;;;23.85;13.70;;;7.60;99.90;;;;;;5046779;28;20041;-68
2022/05/07 03:56:59;;;;;;;;;;;7.70;99.90;;;;;;5062555;28;20097;-68
2022/05/07 03:59:25;;;;;;;23.15;12.82;;;7.60;99.90;;;;;;5065486;28;19917;-69
2022/05/07 04:01:50;;;;;;;;;;;7.60;99.90;;;;;;5061932;28;20051;-69
2022/05/07 04:04:16;;;;;;;25.85;12.75;;;7.60;99.90;;;;;;5066408;28;20582;-69
2022/05/07 04:06:41;;;;;;;;;;;7.60;99.90;;;;;;5061596;28;20044;-69
2022/05/07 04:09:07;;;;;;;22.05;11.63;;;7.70;99.90;;;;;;5046486;28;20705;-68
2022/05/07 04:11:33;;;;;;;;;;;7.70;99.90;;;;;;5049694;28;20695;-71
2022/05/07 04:13:58;;;;;;;20.23;12.02;;;7.70;99.90;;;;;;5044371;28;19920;-70
2022/05/07 04:16:24;;;;;;;;;;;7.80;99.90;;;;;;5050511;28;20056;-69
2022/05/07 04:18:49;;;;;;;19.40;11.57;;;7.90;99.90;;;;;;5046907;28;20025;-69
2022/05/07 04:21:15;;;;;;;;;;;7.90;99.90;;;;;;5052978;28;20037;-69
2022/05/07 04:23:41;;;;;;;20.67;11.68;;;8.00;99.90;;;;;;5047551;28;20022;-68
2022/05/07 04:26:06;;;;;;;;;;;8.10;99.90;;;;;;5052381;28;20272;-69
2022/05/07 04:28:32;;;;;;;18.73;10.05;;;8.20;99.90;;;;;;5046580;28;19916;-68
2022/05/07 04:30:57;;;;;;;;;;;8.30;99.90;;;;;;5049519;28;20042;-69
2022/05/07 04:33:26;;;;;;;18.25;10.23;;;8.40;99.90;;;;;;5044927;28;19928;-69
2022/05/07 04:35:51;;;;;;;22.38;11.38;;;8.40;99.90;;;;;;5049912;28;20048;-69
2022/05/07 04:38:17;;;;;;;;;;;8.50;99.90;;;;;;5045287;28;20029;-69
2022/05/07 04:40:42;;;;;;;18.92;9.88;;;8.60;99.90;;;;;;5047796;28;20022;-69
2022/05/07 04:43:08;;;;;;;;;;;8.70;99.90;;;;;;5046843;28;20524;-69
2022/05/07 04:45:34;;;;;;;17.33;8.73;;;8.70;99.90;;;;;;5045419;28;19931;-69
2022/05/07 04:47:59;;;;;;;;;;;8.90;99.90;;;;;;5048922;28;20033;-69
2022/05/07 04:50:25;;;;;;;16.48;7.80;;;9.10;99.90;;;;;;5044143;28;19978;-69
2022/05/07 04:52:51;;;;;;;;;;;9.20;99.90;;;;;;5060529;28;20044;-68
2022/05/07 04:55:16;;;;;;;13.45;7.88;;;9.30;99.90;;;;;;5054642;28;19927;-68
2022/05/07 04:57:42;;;;;;;;;;;9.90;99.90;;;;;;5050269;28;20657;-68
2022/05/07 05:00:08;;;;;;;14.48;8.02;;;10.60;99.90;;;;;;5047679;28;20390;-67
2022/05/07 05:02:34;;;;;;;13.38;7.90;;;10.90;99.90;;;;;;5047885;28;20041;-69
2022/05/07 05:04:59;;;;;;;;;;;11.10;99.90;;;;;;5045084;28;20041;-70
2022/05/07 05:07:25;;;;;;;13.13;7.35;;;11.50;99.90;;;;;;5048618;28;20554;-70
2022/05/07 05:09:51;;;;;;;;;;;12.10;99.90;;;;;;5045236;28;20508;-70
2022/05/07 05:12:17;;;;;;;16.65;6.70;;;12.50;99.90;;;;;;5048628;28;20003;-70
2022/05/07 05:15:03;;;;;;;11.27;7.13;;;13.20;99.90;;;;;;5044730;28;20055;-72
2022/05/07 05:17:29;;;;;;;12.80;7.57;;;13.90;99.90;;;;;;5048663;28;20120;-68
2022/05/07 05:19:54;;;;;;;;;;;14.10;99.90;;;;;;5044648;28;20735;-68
2022/05/07 05:22:20;;;;;;;10.82;5.95;;;13.80;99.90;;;;;;5048955;28;19916;-68
2022/05/07 05:24:46;;;;;;;;;;;13.60;99.90;;;;;;5044776;28;20041;-68
2022/05/07 05:27:11;;;;;;;14.13;6.45;;;13.40;99.90;;;;;;5048551;28;19920;-68
2022/05/07 05:29:37;;;;;;;;;;;13.20;99.90;;;;;;5045321;28;20083;-68
2022/05/07 05:32:03;;;;;;;10.10;5.90;;;13.30;99.90;;;;;;5049671;28;19973;-67
2022/05/07 05:34:29;;;;;;;10.43;5.85;;;13.50;99.90;;;;;;5044395;28;20049;-70
2022/05/07 05:36:54;;;;;;;;;;;13.70;99.90;;;;;;5044620;28;20766;-69
2022/05/07 05:39:20;;;;;;;8.75;5.45;;;13.80;99.90;;;;;;5046457;28;20587;-67
2022/05/07 05:41:48;;;;;;;;;;;14.40;99.90;;;;;;5040764;28;20560;-66
2022/05/07 05:44:23;;;;;;;8.75;4.72;;;14.90;99.90;;;;;;5042276;28;19916;-68
2022/05/07 05:46:54;;;;;;;8.02;4.75;;;15.40;99.00;;;;;;5045705;28;20487;-66
2022/05/07 05:49:20;;;;;;;8.75;4.80;;;16.00;98.80;;;;;;5043046;28;20036;-67
2022/05/07 05:51:48;;;;;;;;;;;16.40;97.50;;;;;;5041614;28;20037;-66
2022/05/07 05:54:20;;;;;;;8.98;4.93;;;16.40;97.40;;;;;;5045560;28;19920;-68
2022/05/07 05:56:49;;;;;;;7.18;4.72;;;16.40;96.90;;;;;;5035418;28;20555;-67
2022/05/07 05:59:17;;;;;;;7.60;4.90;;;16.20;97.40;;;;;;5062173;28;20052;-68
2022/05/07 06:01:46;;;;;;;10.02;4.93;;;17.10;97.00;;;;;;5064451;28;20027;-68
2022/05/07 06:04:11;;;;;;;6.60;4.47;;;17.50;96.60;;;;;;5043330;28;20041;-67
2022/05/07 06:06:37;;;;;;;;;;;17.70;95.00;;;;;;5059080;28;20045;-66
2022/05/07 06:09:03;;;;;;;8.20;4.13;;;17.10;95.50;;;;;;5055006;28;19947;-68
2022/05/07 06:11:28;;;;;;;8.95;4.00;;;16.90;96.20;;;;;;5043905;28;20704;-67
2022/05/07 06:13:54;;;;;;;7.53;3.60;;;17.00;97.50;;;;;;5047453;28;20039;-67
2022/05/07 06:16:20;;;;;;;8.02;4.55;;;17.00;97.40;;;;;;5043119;28;20076;-67
2022/05/07 06:18:45;;;;;;;7.32;4.03;;;18.00;95.30;;;;;;5047264;28;20048;-66
2022/05/07 06:21:11;;;;;;;5.00;3.47;;;19.00;94.20;;;;;;5043021;28;20045;-67
2022/05/07 06:23:37;;;;;;;6.28;3.60;;;19.50;93.20;;;;;;5047728;28;20583;-67
2022/05/07 06:28:48;;;;;;;3.67;2.85;;;20.10;91.30;;;;;;5033127;28;20097;-67
2022/05/07 06:31:14;;;;;;;7.57;3.33;;;19.80;90.60;;;;;;5062753;28;20041;-67
2022/05/07 06:33:39;;;;;;;6.40;3.15;;;19.40;91.40;;;;;;5058352;28;20053;-67
2022/05/07 06:36:06;;;;;;;8.63;3.95;;;19.20;92.70;;;;;;5063067;28;20055;-67
2022/05/07 06:38:33;;;;;;;14.27;5.90;;;19.00;93.00;;;;;;5051078;28;20028;-67
2022/05/07 06:41:02;;;;;;;7.25;4.53;;;18.70;94.10;;;;;;5042976;28;20064;-68
2022/05/07 06:43:32;;;;;;;5.30;3.20;;;18.80;95.20;;;;;;5047236;28;20782;-68
2022/05/07 06:45:58;;;;;;;7.32;3.70;;;19.70;92.80;;;;;;5042454;28;20509;-68
2022/05/07 06:48:25;;;;;;;8.70;5.18;;;20.40;90.90;;;;;;5045443;28;20040;-68
2022/05/07 06:50:51;;;;;;;6.93;4.65;;;20.80;91.10;;;;;;5041890;28;20048;-68
2022/05/07 06:53:17;;;;;;;11.98;7.90;;;21.00;90.10;;;;;;5044390;28;20424;-68
2022/05/07 06:55:55;;;;;;;14.10;6.90;;;20.80;87.70;;;;;;5050038;28;20045;-67
2022/05/07 06:58:33;;;;;;;15.38;6.88;;;20.50;89.10;;;;;;5046869;28;20056;-68
2022/05/07 07:01:03;;;;;;;20.88;9.95;;;20.60;90.40;;;;;;5041786;28;20033;-68
2022/05/07 07:03:32;;;;;;;18.83;11.02;;;21.20;83.70;;;;;;5046358;28;20089;-68
2022/05/07 07:05:58;;;;;;;23.63;11.98;;;21.60;81.00;;;;;;5042095;28;20049;-67
2022/05/07 07:08:24;;;;;;;22.63;12.68;;;22.30;74.00;;;;;;5046958;28;20438;-67
2022/05/07 07:10:50;;;;;;;21.45;13.40;;;22.50;72.30;;;;;;5049996;28;20037;-67
2022/05/07 07:13:16;;;;;;;21.60;13.30;;;21.90;73.10;;;;;;5044258;28;20032;-68
2022/05/07 07:15:43;;;;;;;21.13;14.85;;;21.90;77.70;;;;;;5043374;28;20424;-67
2022/05/07 07:18:12;;;;;;;18.55;12.30;;;22.60;72.40;;;;;;5043439;28;20037;-66
2022/05/07 07:20:42;;;;;;;21.95;12.70;;;23.30;71.60;;;;;;5040986;28;20037;-68
2022/05/07 07:23:11;;;;;;;25.98;14.98;;;23.50;69.10;;;;;;5041101;28;20559;-68
2022/05/07 07:25:39;;;;;;;23.45;14.93;;;22.80;69.60;;;;;;5040693;28;20048;-68
2022/05/07 07:28:05;;;;;;;22.45;12.73;;;22.80;67.40;;;;;;5055968;28;20037;-68
2022/05/07 07:30:31;;;;;;;19.52;13.40;;;22.90;68.20;;;;;;5060240;28;20036;-68
2022/05/07 07:32:57;;;;;;;22.08;12.40;;;22.90;67.90;;;;;;5066179;28;20044;-68
2022/05/07 07:35:22;;;;;;;23.02;11.32;;;23.00;67.50;;;;;;5060941;28;20039;-69
2022/05/07 07:37:48;;;;;;;16.73;11.98;;;23.30;67.40;;;;;;5056621;28;20867;-68
2022/05/07 07:40:14;;;;;;;20.77;12.82;;;22.00;69.60;;;;;;5046512;28;20116;-68
2022/05/07 07:42:41;;;;;;;26.85;14.38;;;22.10;72.60;;;;;;5045864;28;20068;-68
2022/05/07 07:48:05;;;;;;;21.33;12.20;;;21.80;70.90;;;;;;5056375;28;20048;-68
2022/05/07 07:50:34;;;;;;;19.63;12.30;;;21.50;69.60;;;;;;5046266;28;20075;-68
2022/05/07 07:53:10;;;;;;;23.38;14.73;;;21.90;69.70;;;;;;5047612;28;20049;-67
2022/05/07 07:55:37;;;;;;;25.40;13.98;;;21.80;66.20;;;;;;5061542;28;20064;-68
2022/05/07 07:58:05;;;;;;;19.25;12.20;;;22.10;67.40;;;;;;5065921;28;20045;-67
2022/05/07 08:00:32;;;;;;;19.42;11.38;;;22.60;67.70;;;;;;5060200;28;20469;-67
2022/05/07 08:03:05;;;;;;;18.63;11.43;;;23.10;68.00;;;;;;5066346;28;20053;-68
2022/05/07 08:05:33;;;;;;;18.15;11.85;;;24.30;62.90;;;;;;5060658;28;20516;-69
2022/05/07 08:13:37;;;;;;;17.40;12.02;;;21.30;67.60;;;;;;5065356;28;20279;-68
2022/05/07 08:16:04;;;;;;;20.48;12.43;;;20.80;69.60;;;;;;5061285;28;20445;-68
2022/05/07 08:18:30;;;;;;;16.20;10.60;;;19.80;72.60;;;;;;5063923;28;20055;-67
2022/05/07 08:20:56;;;;;;;21.45;12.77;;;19.40;74.80;;;;;;5060366;28;20071;-67
2022/05/07 08:23:22;;;;;;;19.85;12.30;;;19.20;75.40;;;;;;5065317;28;20129;-67
2022/05/07 08:25:48;;;;;;;26.23;14.05;;;19.00;76.40;;;;;;5060401;28;20048;-68
2022/05/07 08:28:14;;;;;;;24.40;13.30;;;18.80;77.70;;;;;;5065529;28;20052;-67
2022/05/07 08:30:39;;;;;;;30.35;15.00;;;18.90;79.60;;;;;;5058955;28;20377;-66
2022/05/07 08:33:05;;;;;;;24.58;15.95;;;19.20;77.50;;;;;;5067541;28;20041;-68
2022/05/07 08:35:31;;;;;;;15.07;9.50;;;20.50;76.60;;;;;;5060250;28;20110;-69
2022/05/07 08:37:56;;;;;;;9.68;5.03;;;20.90;66.90;;;;;;5053638;28;20512;-69
2022/05/07 08:40:23;;;;;;;11.32;5.78;;;22.20;64.60;;;;;;5049913;28;20037;-69
2022/05/07 08:42:49;;;;;;;10.43;7.00;;;23.10;61.00;;;;;;5065630;28;20033;-68
2022/05/07 08:45:15;;;;;;;12.27;8.40;;;23.30;63.80;;;;;;5060791;28;20150;-68
2022/05/07 08:47:42;;;;;;;18.40;9.85;;;22.50;61.60;;;;;;5059612;28;20037;-69
2022/05/07 08:50:11;;;;;;;19.10;11.43;;;21.40;64.60;;;;;;5045311;28;20029;-68
2022/05/07 08:52:45;;;;;;;17.88;12.00;;;21.50;68.20;;;;;;5064823;28;20094;-68
2022/05/07 08:55:25;;;;;;;21.85;13.40;;;20.80;72.30;;;;;;5059536;28;20032;-68
2022/05/07 08:57:55;;;;;;;24.90;11.30;;;20.40;73.70;;;;;;5043624;28;20728;-68
2022/05/07 09:00:24;;;;;;;20.63;11.48;;;20.00;71.70;;;;;;5039641;28;20076;-68
2022/05/07 09:02:55;;;;;;;25.17;8.43;;;19.70;73.90;;;;;;5026097;28;20502;-68
2022/05/07 09:05:37;;;;;;;22.05;11.70;;;19.60;75.30;;;;;;5035803;28;20047;-68
2022/05/07 09:08:08;;;;;;;26.20;12.07;;;20.00;75.40;;;;;;5043615;28;20187;-68
2022/05/07 09:10:40;;;;;;;19.80;12.82;;;20.00;76.30;;;;;;5048304;28;20044;-69
2022/05/07 09:13:16;;;;;;;22.80;13.18;;;20.20;72.10;;;;;;5044282;28;20099;-68
2022/05/07 09:16:17;;;;;;;20.55;11.75;;;19.90;74.60;;;;;;5047482;28;20033;-68
2022/05/07 09:18:48;;;;;;;15.20;7.85;;;19.50;73.80;;;;;;5012748;28;20069;-68
2022/05/07 09:21:16;;;;;;;11.75;7.47;;;19.10;72.50;;;;;;5048612;28;20037;-68
2022/05/07 09:24:00;;;;;;;12.18;7.00;;;18.90;77.50;;;;;;5043735;28;20036;-70
2022/05/07 09:26:36;;;;;;;15.65;7.72;;;19.10;77.90;;;;;;5048725;28;20043;-68
2022/05/07 09:29:03;;;;;;;;;;;19.30;75.20;;;;;;5043492;28;20049;-69
2022/05/07 09:31:31;;;;;;;14.35;9.75;;;19.30;72.10;;;;;;5046875;28;19921;-68
2022/05/07 09:36:43;;;;;;;17.13;10.20;;;18.80;75.10;;;;;;5054376;28;20041;-68
2022/05/07 09:39:14;;;;;;;14.77;9.65;;;18.90;76.50;;;;;;5044011;28;20451;-68
2022/05/07 09:41:43;;;;;;;22.58;14.65;;;18.90;74.20;;;;;;5042561;28;20041;-67
2022/05/07 09:44:10;;;;;;;23.90;14.35;;;19.00;77.50;;;;;;5040707;28;20045;-68
2022/05/07 09:46:36;;;;;;;19.13;12.80;;;19.40;81.00;;;;;;5048299;28;20033;-68
2022/05/07 09:49:04;;;;;;;21.33;13.70;;;19.50;77.50;;;;;;5043938;28;20060;-67
2022/05/07 09:51:30;;;;;;;20.10;12.75;;;19.20;76.60;;;;;;5047147;28;20045;-68
2022/05/07 09:59:27;;;;;;;17.75;11.70;;;18.70;79.80;;;;;;5044373;28;20041;-68
2022/05/07 10:02:19;;;;;;;;;;;19.00;77.90;;;;;;5047276;28;20043;-68
2022/05/07 10:05:02;;;;;;;27.20;15.98;;;19.10;78.90;;;;;;5042290;28;19982;-67
2022/05/07 10:07:50;;;;;;;36.05;18.90;;;19.30;81.10;;;;;;5047378;28;20037;-67
2022/05/07 10:10:25;;;;;;;25.10;16.83;;;19.00;83.00;;;;;;5042927;28;20044;-67
2022/05/07 10:12:55;;;;;;;24.98;15.77;;;18.70;82.90;;;;;;5046996;28;20066;-68
2022/05/07 10:15:23;;;;;;;25.42;17.27;;;18.70;81.30;;;;;;5042818;28;20689;-66
2022/05/07 10:18:04;;;;;;;23.73;16.58;;;18.60;82.50;;;;;;5046970;28;20049;-67
2022/05/07 10:20:43;;;;;;;25.30;17.02;;;18.60;82.50;;;;;;5042342;28;20040;-68
2022/05/07 10:23:10;;;;;;;26.05;16.02;;;18.50;83.50;;;;;;5047017;28;20746;-67
2022/05/07 10:25:37;;;;;;;26.23;16.92;;;18.50;85.30;;;;;;5041886;28;20514;-67
2022/05/07 10:28:14;;;;;;;25.42;15.05;;;18.60;82.30;;;;;;5043221;28;20128;-68
2022/05/07 10:30:46;;;;;;;26.67;16.95;;;18.50;82.30;;;;;;5040810;28;20091;-67
2022/05/07 10:33:12;;;;;;;25.48;17.48;;;18.60;81.30;;;;;;5055147;28;20131;-68
2022/05/07 10:35:58;;;;;;;;;;;18.50;82.20;;;;;;5062347;28;20190;-67
2022/05/07 10:38:27;;;;;;;28.20;17.52;;;18.70;84.50;;;;;;5048794;28;19917;-68
2022/05/07 10:40:57;;;;;;;28.80;16.33;;;18.40;84.60;;;;;;5042331;28;20073;-68
2022/05/07 10:43:34;;;;;;;25.60;17.05;;;18.60;86.70;;;;;;5046493;28;20126;-68
2022/05/07 10:46:04;;;;;;;;;;;18.60;87.70;;;;;;5042727;28;20045;-67
2022/05/07 10:48:44;;;;;;;26.35;15.98;;;18.60;87.50;;;;;;5047060;28;19955;-68
2022/05/07 10:51:16;;;;;;;26.85;18.63;;;18.70;86.90;;;;;;5041910;28;20102;-70
2022/05/07 10:53:42;;;;;;;31.98;19.92;;;18.60;87.40;;;;;;5045513;28;20112;-68
2022/05/07 10:56:14;;;;;;;;;;;18.50;86.70;;;;;;5042613;28;20049;-69
2022/05/07 10:58:50;;;;;;;35.28;19.92;;;18.30;85.80;;;;;;5046649;28;19921;-68
2022/05/07 11:01:17;;;;;;;37.53;20.83;;;18.30;87.10;;;;;;5045428;28;20037;-69
2022/05/07 11:03:44;;;;;;;39.40;22.33;;;18.40;87.40;;;;;;5044484;28;20044;-68
2022/05/07 11:06:10;;;;;;;29.23;19.48;;;18.40;88.30;;;;;;5035650;28;20531;-64
2022/05/07 11:08:47;;;;;;;;;;;18.90;85.10;;;;;;5045012;28;20041;-69
2022/05/07 11:11:15;;;;;;;;;;;19.00;83.90;;;;;;5038135;28;19923;-70
2022/05/07 11:13:52;;;;;;;30.40;18.85;;;19.20;86.40;;;;;;5051298;28;19916;-70
2022/05/07 11:16:18;;;;;;;;;;;19.30;79.40;;;;;;5042509;28;20071;-70
2022/05/07 11:18:54;;;;;;;30.17;19.17;;;19.40;84.90;;;;;;5041671;28;19917;-70
2022/05/07 11:21:23;;;;;;;22.30;15.52;;;19.30;80.60;;;;;;5044770;28;20033;-70
2022/05/07 11:23:53;;;;;;;36.35;19.10;;;19.60;85.70;;;;;;5051891;28;20037;-70
2022/05/07 11:26:20;;;;;;;26.65;17.13;;;19.90;78.80;;;;;;5040785;28;20037;-70
2022/05/07 11:28:46;;;;;;;29.17;16.55;;;19.90;78.70;;;;;;5036111;28;20044;-70
2022/05/07 11:31:24;;;;;;;27.45;17.08;;;19.70;78.30;;;;;;5041070;28;20065;-70
2022/05/07 11:34:21;;;;;;;23.80;15.43;;;19.60;77.30;;;;;;5044945;28;20033;-70
2022/05/07 11:36:47;;;;;;;;;;;19.70;78.30;;;;;;5039625;28;20744;-70
2022/05/07 11:39:16;;;;;;;23.77;15.77;;;19.90;80.90;;;;;;5043532;28;19924;-70
2022/05/07 11:41:42;;;;;;;25.88;17.10;;;19.70;77.30;;;;;;5036861;28;20064;-70
2022/05/07 11:46:54;;;;;;;27.27;15.45;;;19.20;81.20;;;;;;5041849;28;20488;-70
2022/05/07 11:49:36;;;;;;;27.73;16.42;;;19.10;81.50;;;;;;5046176;28;20106;-70
2022/05/07 11:52:09;;;;;;;26.80;16.58;;;19.00;83.70;;;;;;5041609;28;20171;-70
2022/05/07 11:54:35;;;;;;;28.35;16.13;;;18.90;81.90;;;;;;5045921;28;20098;-70
2022/05/07 11:57:00;;;;;;;;;;;18.90;80.70;;;;;;5042320;28;20036;-70
2022/05/07 11:59:26;;;;;;;23.25;15.40;;;19.00;80.20;;;;;;5045896;28;19916;-70
2022/05/07 12:01:52;;;;;;;26.20;16.33;;;19.00;81.90;;;;;;5040853;28;20056;-70
2022/05/07 12:04:17;;;;;;;;;;;19.00;80.00;;;;;;5050873;28;20036;-70
2022/05/07 12:06:55;;;;;;;26.30;15.45;;;19.00;80.10;;;;;;5060453;28;19916;-70
2022/05/07 12:09:21;;;;;;;24.00;16.42;;;18.90;79.60;;;;;;5041663;28;20041;-70
2022/05/07 12:11:46;;;;;;;;;;;18.80;78.60;;;;;;5040834;28;20033;-70
2022/05/07 12:14:12;;;;;;;24.42;15.57;;;18.70;83.50;;;;;;5054747;28;19977;-70
2022/05/07 12:19:29;;;;;;;22.38;14.82;;;18.80;83.30;;;;;;5049612;28;20552;-70
2022/05/07 12:30:07;;;;;;;;;;;19.10;79.40;;;;;;5049396;28;19924;-71
2022/05/07 12:32:32;;;;;;;;;;;19.20;79.30;;;;;;5044433;28;19917;-70
2022/05/07 12:34:58;;;;;;;;;;;19.00;80.00;;;;;;5049445;28;20311;-70
2022/05/07 12:37:24;;;;;;;;;;;19.10;83.80;;;;;;5045199;28;20412;-70
2022/05/07 12:39:49;;;;;;;;;;;19.40;82.00;;;;;;5045874;28;20011;-70
2022/05/07 12:42:15;;;;;;;;;;;19.60;80.60;;;;;;5028492;28;19976;-70
2022/05/07 12:44:42;;;;;;;;;;;19.50;78.70;;;;;;5039054;28;19982;-70
2022/05/07 12:47:07;;;;;;;;;;;19.20;80.50;;;;;;5034561;28;19921;-70
2022/05/07 12:49:33;;;;;;;;;;;19.30;81.50;;;;;;5043582;28;19928;-71
2022/05/07 12:51:58;;;;;;;;;;;19.10;84.40;;;;;;5044140;28;19939;-70
2022/05/07 12:54:24;;;;;;;;;;;19.10;83.00;;;;;;5049187;28;19920;-71
2022/05/07 12:56:50;;;;;;;;;;;19.00;83.80;;;;;;5045045;28;19920;-72
2022/05/07 12:59:15;;;;;;;;;;;18.90;81.30;;;;;;5046968;28;19917;-70
2022/05/07 13:01:41;;;;;;;;;;;18.90;83.70;;;;;;5042446;28;19917;-69
2022/05/07 13:04:09;;;;;;;;;;;19.10;79.90;;;;;;5044433;28;19917;-70
2022/05/07 13:06:36;;;;;;;;;;;19.10;82.80;;;;;;5048142;28;19916;-71
2022/05/07 13:09:02;;;;;;;;;;;19.10;83.30;;;;;;5047720;28;19927;-71
2022/05/07 13:11:28;;;;;;;;;;;19.10;81.30;;;;;;5047454;28;20045;-70
2022/05/07 13:13:56;;;;;;;;;;;19.00;82.70;;;;;;5034860;28;19978;-68
2022/05/07 13:16:22;;;;;;;;;;;18.90;82.60;;;;;;5040766;28;19931;-71
2022/05/07 13:18:47;;;;;;;;;;;18.90;82.20;;;;;;5039767;28;19921;-69
2022/05/07 13:21:13;;;;;;;;;;;18.90;82.30;;;;;;5043152;28;20385;-71
2022/05/07 13:23:39;;;;;;;;;;;18.90;80.60;;;;;;5030171;28;19924;-72
2022/05/07 13:26:05;;;;;;;;;;;18.80;80.70;;;;;;5048030;28;19916;-70
2022/05/07 13:28:31;;;;;;;;;;;18.70;79.80;;;;;;5045764;28;19983;-71
2022/05/07 13:31:00;;;;;;;;;;;18.80;85.50;;;;;;5046917;28;19923;-71
2022/05/07 13:33:26;;;;;;;;;;;18.90;82.00;;;;;;5061672;28;19989;-73
2022/05/07 13:35:52;;;;;;;;;;;19.20;80.00;;;;;;5057998;28;19920;-71
2022/05/07 13:38:18;;;;;;;;;;;19.50;78.80;;;;;;5055591;28;19917;-71
2022/05/07 13:40:44;;;;;;;;;;;19.60;77.90;;;;;;5062661;28;19924;-69
2022/05/07 13:43:10;;;;;;;;;;;19.70;79.40;;;;;;5061197;28;20003;-72
2022/05/07 13:45:36;;;;;;;;;;;19.50;77.30;;;;;;5055923;28;20537;-67
2022/05/07 13:48:02;;;;;;;;;;;19.30;77.90;;;;;;5072456;28;20006;-70
2022/05/07 13:50:28;;;;;;;;;;;19.30;78.40;;;;;;5074375;28;20019;-71
2022/05/07 13:52:53;;;;;;;;;;;19.20;79.40;;;;;;5072161;28;19920;-68
2022/05/07 13:55:19;;;;;;;;;;;18.90;83.00;;;;;;5063102;28;19955;-69
2022/05/07 13:57:44;;;;;;;;;;;18.70;85.00;;;;;;5063576;28;19955;-68